AXM133 WMKL-WMKA
Flight info
| Callsign | AXM133 |
|---|---|
| Flight time | 0h 13m |
| Altitude | 11000 |
| Route | MULOT1B MULOT MULOT1E |
| Aircraft | A320/M-SDE3FGHIRWY/LB1 |
Departure
| Time | 2026-05-04 04:25 |
|---|---|
| Airport | Langkawi International Airport (WMKL) |
Arrival
| Time | 2026-05-04 04:39 |
|---|---|
| Airport | Sultan Abdul Halim Airport (WMKA) |
| Time | Latitude | Longitude | Altitude | Speed | Heading |
|---|---|---|---|---|---|
| 2026-05-04 03:32 | 6.33919 | 99.73141 | 32 ft | 0 kts | 303° |
| 2026-05-04 04:17 | 6.33910 | 99.73154 | 32 ft | 4 kts | 309° |
| 2026-05-04 04:18 | 6.33892 | 99.73173 | 32 ft | 4 kts | 328° |
| 2026-05-04 04:18 | 6.33869 | 99.73181 | 32 ft | 4 kts | 17° |
| 2026-05-04 04:18 | 6.33858 | 99.73176 | 32 ft | 1 kts | 34° |
| 2026-05-04 04:21 | 6.33862 | 99.73179 | 32 ft | 6 kts | 34° |
| 2026-05-04 04:21 | 6.33916 | 99.73216 | 32 ft | 8 kts | 34° |
| 2026-05-04 04:21 | 6.33984 | 99.73263 | 32 ft | 12 kts | 34° |
| 2026-05-04 04:22 | 6.34046 | 99.73306 | 32 ft | 14 kts | 34° |
| 2026-05-04 04:22 | 6.34137 | 99.73371 | 32 ft | 16 kts | 47° |
| 2026-05-04 04:22 | 6.34161 | 99.73469 | 30 ft | 13 kts | 63° |
| 2026-05-04 04:22 | 6.34222 | 99.73521 | 32 ft | 13 kts | 34° |
| 2026-05-04 04:23 | 6.34336 | 99.73598 | 32 ft | 22 kts | 34° |
| 2026-05-04 04:23 | 6.34450 | 99.73696 | 32 ft | 22 kts | 65° |
| 2026-05-04 04:23 | 6.34445 | 99.73751 | 31 ft | 0 kts | 123° |
| 2026-05-04 04:24 | 6.34390 | 99.73813 | 32 ft | 16 kts | 157° |
| 2026-05-04 04:24 | 6.34318 | 99.73782 | 32 ft | 8 kts | 214° |
| 2026-05-04 04:24 | 6.34316 | 99.73781 | 30 ft | 0 kts | 215° |
| 2026-05-04 04:25 | 6.34217 | 99.73713 | 32 ft | 56 kts | 214° |
| 2026-05-04 04:25 | 6.33668 | 99.73338 | 32 ft | 131 kts | 214° |
| 2026-05-04 04:25 | 6.32755 | 99.72715 | 170 ft | 177 kts | 215° |
| 2026-05-04 04:25 | 6.31685 | 99.71968 | 750 ft | 200 kts | 214° |
| 2026-05-04 04:26 | 6.30427 | 99.71210 | 1363 ft | 220 kts | 203° |
| 2026-05-04 04:26 | 6.28860 | 99.70997 | 1998 ft | 243 kts | 168° |
| 2026-05-04 04:26 | 6.27345 | 99.71867 | 2683 ft | 264 kts | 130° |
| 2026-05-04 04:26 | 6.26583 | 99.73556 | 3559 ft | 274 kts | 96° |
| 2026-05-04 04:27 | 6.26887 | 99.75421 | 4511 ft | 275 kts | 67° |
| 2026-05-04 04:27 | 6.27537 | 99.77236 | 5595 ft | 279 kts | 81° |
| 2026-05-04 04:27 | 6.27342 | 99.79176 | 6583 ft | 285 kts | 108° |
| 2026-05-04 04:27 | 6.26654 | 99.81058 | 7680 ft | 289 kts | 110° |
| 2026-05-04 04:28 | 6.25947 | 99.82956 | 8723 ft | 291 kts | 110° |
| 2026-05-04 04:28 | 6.25228 | 99.84874 | 9667 ft | 296 kts | 110° |
| 2026-05-04 04:28 | 6.24496 | 99.86827 | 10439 ft | 305 kts | 110° |
| 2026-05-04 04:28 | 6.23718 | 99.88906 | 10801 ft | 330 kts | 110° |
| 2026-05-04 04:29 | 6.22875 | 99.91138 | 11066 ft | 354 kts | 110° |
| 2026-05-04 04:29 | 6.22012 | 99.93422 | 11229 ft | 340 kts | 110° |
| 2026-05-04 04:29 | 6.21186 | 99.95613 | 11061 ft | 328 kts | 110° |
| 2026-05-04 04:29 | 6.20390 | 99.97711 | 10918 ft | 315 kts | 110° |
| 2026-05-04 04:30 | 6.19622 | 99.99732 | 10719 ft | 306 kts | 110° |
| 2026-05-04 04:30 | 6.18871 | 100.01716 | 10358 ft | 303 kts | 110° |
| 2026-05-04 04:30 | 6.18132 | 100.03675 | 9757 ft | 297 kts | 110° |
| 2026-05-04 04:30 | 6.17403 | 100.05614 | 8991 ft | 296 kts | 110° |
| 2026-05-04 04:31 | 6.16605 | 100.07508 | 8220 ft | 293 kts | 118° |
| 2026-05-04 04:31 | 6.15475 | 100.09191 | 7421 ft | 290 kts | 125° |
| 2026-05-04 04:31 | 6.14313 | 100.10833 | 6667 ft | 286 kts | 124° |
| 2026-05-04 04:31 | 6.13180 | 100.12453 | 6051 ft | 282 kts | 125° |
| 2026-05-04 04:32 | 6.12061 | 100.14050 | 5518 ft | 278 kts | 125° |
| 2026-05-04 04:32 | 6.10946 | 100.15632 | 4993 ft | 276 kts | 125° |
| 2026-05-04 04:32 | 6.09837 | 100.17202 | 4476 ft | 275 kts | 125° |
| 2026-05-04 04:32 | 6.08731 | 100.18770 | 4065 ft | 271 kts | 125° |
| 2026-05-04 04:33 | 6.07649 | 100.20259 | 3931 ft | 257 kts | 130° |
| 2026-05-04 04:33 | 6.06226 | 100.21322 | 3543 ft | 254 kts | 151° |
| 2026-05-04 04:33 | 6.04872 | 100.22340 | 3542 ft | 234 kts | 129° |
| 2026-05-04 04:33 | 6.04174 | 100.23684 | 3541 ft | 205 kts | 103° |
| 2026-05-04 04:34 | 6.04077 | 100.25005 | 3559 ft | 176 kts | 83° |
| 2026-05-04 04:34 | 6.04385 | 100.26105 | 3522 ft | 155 kts | 64° |
| 2026-05-04 04:34 | 6.04951 | 100.26978 | 3396 ft | 146 kts | 47° |
| 2026-05-04 04:34 | 6.05672 | 100.27669 | 3243 ft | 144 kts | 43° |
| 2026-05-04 04:35 | 6.06420 | 100.28352 | 3065 ft | 146 kts | 42° |
| 2026-05-04 04:35 | 6.07162 | 100.29030 | 2882 ft | 144 kts | 42° |
| 2026-05-04 04:35 | 6.07901 | 100.29704 | 2694 ft | 143 kts | 43° |
| 2026-05-04 04:35 | 6.08635 | 100.30375 | 2506 ft | 143 kts | 42° |
| 2026-05-04 04:36 | 6.09368 | 100.31046 | 2322 ft | 142 kts | 42° |
| 2026-05-04 04:36 | 6.10099 | 100.31714 | 2131 ft | 142 kts | 42° |
| 2026-05-04 04:36 | 6.10827 | 100.32381 | 1943 ft | 141 kts | 42° |
| 2026-05-04 04:36 | 6.11554 | 100.33045 | 1755 ft | 141 kts | 42° |
| 2026-05-04 04:37 | 6.13721 | 100.35028 | 1195 ft | 140 kts | 42° |
| 2026-05-04 04:37 | 6.14441 | 100.35687 | 1006 ft | 140 kts | 42° |
| 2026-05-04 04:38 | 6.15162 | 100.36345 | 823 ft | 140 kts | 41° |
| 2026-05-04 04:38 | 6.15879 | 100.37002 | 642 ft | 140 kts | 42° |
| 2026-05-04 04:38 | 6.16595 | 100.37658 | 449 ft | 139 kts | 42° |
| 2026-05-04 04:38 | 6.17299 | 100.38314 | 256 ft | 138 kts | 43° |
| 2026-05-04 04:39 | 6.18008 | 100.38963 | 75 ft | 137 kts | 41° |
| 2026-05-04 04:39 | 6.18686 | 100.39577 | 24 ft | 118 kts | 41° |
| 2026-05-04 04:39 | 6.19124 | 100.39972 | 22 ft | 42 kts | 42° |
| 2026-05-04 04:39 | 6.19265 | 100.40098 | 21 ft | 27 kts | 45° |
| 2026-05-04 04:40 | 6.19309 | 100.40199 | 21 ft | 3 kts | 139° |
| 2026-05-04 04:40 | 6.19282 | 100.40231 | 20 ft | 10 kts | 132° |
| 2026-05-04 04:40 | 6.19235 | 100.40265 | 20 ft | 6 kts | 199° |
| 2026-05-04 04:40 | 6.19192 | 100.40233 | 20 ft | 8 kts | 222° |
| 2026-05-04 04:41 | 6.19133 | 100.40178 | 22 ft | 14 kts | 223° |
| 2026-05-04 04:41 | 6.19057 | 100.40110 | 20 ft | 15 kts | 220° |
| 2026-05-04 04:41 | 6.18988 | 100.40035 | 20 ft | 13 kts | 268° |
| 2026-05-04 04:41 | 6.19036 | 100.39963 | 23 ft | 11 kts | 310° |
| 2026-05-04 04:42 | 6.19033 | 100.39883 | 23 ft | 14 kts | 251° |
| 2026-05-04 04:42 | 6.19076 | 100.39800 | 23 ft | 15 kts | 311° |
| 2026-05-04 04:42 | 6.19153 | 100.39722 | 21 ft | 12 kts | 318° |
| 2026-05-04 04:42 | 6.19165 | 100.39657 | 22 ft | 9 kts | 256° |
| 2026-05-04 04:43 | 6.19161 | 100.39643 | 20 ft | 0 kts | 255° |